Time;durP1;ratioP1;P1;durP2;ratioP2;P2;SDS_P1;SDS_P2;PMS_P1;PMS_P2;Temp;Humidity;BMP_temperature;BMP_pressure;BME280_temperature;BME280_humidity;BME280_pressure;Samples;Min_cycle;Max_cycle;Signal;HPM_P1;HPM_P2
2022/04/28 00:00:59;;;;;;;0.60;0.60;;;;;;;1.41;66.36;99720.59;5070861;28;20068;-82
2022/04/28 00:03:26;;;;;;;0.70;0.70;;;;;;;1.35;66.64;99718.63;5071953;28;20142;-82
2022/04/28 00:05:54;;;;;;;0.73;0.73;;;;;;;1.29;66.77;99734.25;5071823;28;20143;-82
2022/04/28 00:08:21;;;;;;;0.70;0.70;;;;;;;1.26;66.37;99725.75;5053532;28;20048;-82
2022/04/28 00:10:48;;;;;;;0.70;0.70;;;;;;;1.26;66.30;99731.06;5071276;28;20050;-82
2022/04/28 00:13:15;;;;;;;0.80;0.80;;;;;;;1.23;66.28;99732.22;5071275;28;20049;-82
2022/04/28 00:15:43;;;;;;;0.77;0.77;;;;;;;1.19;66.50;99738.91;5053567;28;20048;-82
2022/04/28 00:18:10;;;;;;;0.82;0.82;;;;;;;1.08;66.89;99744.53;5070881;28;20091;-81
2022/04/28 00:20:37;;;;;;;0.90;0.90;;;;;;;0.94;67.45;99739.84;5071545;28;20041;-80
2022/04/28 00:23:04;;;;;;;0.70;0.70;;;;;;;0.83;68.06;99741.00;5071200;28;20048;-81
2022/04/28 00:25:31;;;;;;;0.73;0.73;;;;;;;0.81;68.29;99750.97;5071347;28;20602;-82
2022/04/28 00:27:58;;;;;;;0.80;0.80;;;;;;;0.77;68.42;99746.97;5071989;28;20048;-82
2022/04/28 00:30:26;;;;;;;0.80;0.80;;;;;;;0.79;68.46;99751.13;5054746;28;20066;-82
2022/04/28 00:32:53;;;;;;;0.80;0.80;;;;;;;0.76;68.68;99761.25;5053874;28;20041;-82
2022/04/28 00:35:21;;;;;;;0.80;0.80;;;;;;;0.72;68.75;99755.44;5071272;28;20234;-82
2022/04/28 00:37:48;;;;;;;0.80;0.80;;;;;;;0.68;68.96;99756.75;5072099;28;20052;-81
2022/04/28 00:40:16;;;;;;;0.70;0.70;;;;;;;0.65;68.94;99759.72;5071645;28;20049;-82
2022/04/28 00:42:43;;;;;;;0.77;0.77;;;;;;;0.55;69.37;99753.72;5054493;28;20052;-81
2022/04/28 00:45:11;;;;;;;0.80;0.80;;;;;;;0.52;69.81;99759.38;5071214;28;20931;-81
2022/04/28 00:50:41;;;;;;;0.90;0.90;;;;;;;0.40;70.16;99757.00;5072049;28;20060;-80
2022/04/28 00:53:12;;;;;;;0.80;0.80;;;;;;;0.37;70.36;99775.06;5071477;28;20055;-82
2022/04/28 00:55:41;;;;;;;0.80;0.80;;;;;;;0.35;70.56;99775.22;5054523;28;20077;-83
2022/04/28 00:58:10;;;;;;;0.80;0.80;;;;;;;0.38;70.29;99774.06;5050601;28;20049;-84
2022/04/28 01:00:39;;;;;;;0.80;0.80;;;;;;;0.41;70.01;99777.25;5036413;28;20044;-81
2022/04/28 01:03:10;;;;;;;0.88;0.88;;;;;;;0.35;69.94;99772.56;5052525;28;20443;-81
2022/04/28 01:05:38;;;;;;;0.73;0.73;;;;;;;0.38;69.75;99777.59;5052582;28;20049;-82
2022/04/28 01:08:09;;;;;;;0.70;0.70;;;;;;;0.34;70.12;99781.53;5052698;28;20503;-80
2022/04/28 01:10:36;;;;;;;0.82;0.82;;;;;;;0.26;69.81;99778.84;5036181;28;20495;-82
2022/04/28 01:13:04;;;;;;;0.88;0.88;;;;;;;0.28;69.59;99776.03;5052967;28;20055;-85
2022/04/28 01:15:44;;;;;;;0.80;0.80;;;;;;;0.33;68.91;99777.22;5056139;28;20558;-82
2022/04/28 01:18:12;;;;;;;0.70;0.70;;;;;;;0.29;68.85;99783.84;5056573;28;20076;-81
2022/04/28 01:20:40;;;;;;;0.70;0.70;;;;;;;0.21;68.90;99784.63;5056584;28;20048;-82
2022/04/28 01:23:09;;;;;;;0.77;0.77;;;;;;;0.15;68.90;99784.44;5056157;28;20059;-82
2022/04/28 01:25:37;;;;;;;0.63;0.63;;;;;;;0.21;68.38;99783.81;5055578;28;20061;-80
2022/04/28 01:28:05;;;;;;;0.73;0.73;;;;;;;0.29;67.84;99783.03;5055306;28;20130;-81
2022/04/28 01:30:36;;;;;;;0.80;0.80;;;;;;;0.32;67.47;99794.13;5039716;28;20071;-83
2022/04/28 01:33:03;;;;;;;0.80;0.80;;;;;;;0.33;67.32;99790.50;5055832;28;20575;-81
2022/04/28 01:35:30;;;;;;;0.60;0.60;;;;;;;0.34;67.25;99792.16;5055760;28;20053;-80
2022/04/28 01:37:58;;;;;;;0.68;0.68;;;;;;;0.31;67.65;99796.97;5039397;28;20051;-82
2022/04/28 01:40:25;;;;;;;0.73;0.73;;;;;;;0.28;67.69;99794.63;5073394;28;20079;-80
2022/04/28 01:42:53;;;;;;;0.70;0.70;;;;;;;0.25;67.78;99801.06;5055846;28;20052;-81
2022/04/28 01:45:21;;;;;;;0.70;0.70;;;;;;;0.26;67.63;99805.41;5055021;28;20131;-82
2022/04/28 01:48:11;;;;;;;0.80;0.80;;;;;;;0.26;67.87;99808.06;5072182;28;20044;-82
2022/04/28 01:56:46;;;;;;;0.90;0.90;;;;;;;0.10;69.01;99811.47;5074534;28;20056;-82
2022/04/28 01:59:53;;;;;;;0.80;0.80;;;;;;;0.08;69.07;99821.41;4991410;28;20196;-83
2022/04/28 02:02:46;;;;;;;0.82;0.82;;;;;;;0.12;69.30;99827.22;4971826;28;20534;-82
2022/04/28 02:05:13;;;;;;;0.70;0.70;;;;;;;0.12;69.20;99827.22;4955355;28;20600;-81
2022/04/28 02:07:41;;;;;;;0.80;0.80;;;;;;;0.03;69.70;99829.00;4955967;28;20058;-82
2022/04/28 02:10:09;;;;;;;0.70;0.70;;;;;;;0.02;70.03;99834.47;4956208;28;20076;-82
2022/04/28 02:12:38;;;;;;;0.77;0.77;;;;;;;0.05;69.75;99827.03;4956360;28;20046;-82
2022/04/28 02:15:24;;;;;;;0.90;0.90;;;;;;;0.02;69.54;99826.50;4973362;28;20062;-84
2022/04/28 02:18:09;;;;;;;0.80;0.80;;;;;;;0.02;69.58;99831.81;4955705;28;20058;-84
2022/04/28 02:20:37;;;;;;;0.90;0.90;;;;;;;-0.03;69.69;99841.06;4939687;28;20516;-83
2022/04/28 02:23:04;;;;;;;0.80;0.80;;;;;;;-0.06;69.14;99833.41;4955456;28;20512;-83
2022/04/28 02:25:35;;;;;;;0.80;0.80;;;;;;;-0.12;69.12;99835.88;4954540;28;20107;-84
2022/04/28 02:28:02;;;;;;;0.80;0.80;;;;;;;-0.17;69.06;99835.50;4955460;28;20081;-83
2022/04/28 02:30:29;;;;;;;0.70;0.70;;;;;;;-0.18;68.66;99837.31;4988075;28;20088;-84
2022/04/28 02:33:19;;;;;;;0.90;0.90;;;;;;;-0.18;68.37;99839.13;4994468;28;20077;-83
2022/04/28 02:36:05;;;;;;;0.80;0.80;;;;;;;-0.21;67.96;99840.28;5010450;28;20058;-87
2022/04/28 02:38:35;;;;;;;0.80;0.80;;;;;;;-0.15;67.42;99844.97;5028548;28;20075;-83
2022/04/28 02:41:07;;;;;;;0.80;0.80;;;;;;;-0.16;66.75;99838.00;5054579;28;20079;-82
2022/04/28 02:43:35;;;;;;;0.65;0.65;;;;;;;-0.10;66.68;99848.00;5054566;28;20063;-83
2022/04/28 02:46:11;;;;;;;0.80;0.80;;;;;;;-0.07;66.17;99850.34;5072387;28;20052;-83
2022/04/28 02:49:05;;;;;;;0.85;0.85;;;;;;;0.02;65.77;99853.03;5070248;28;20423;-85
2022/04/28 02:51:37;;;;;;;0.80;0.80;;;;;;;0.08;65.30;99857.75;5054435;28;20052;-83
2022/04/28 02:54:05;;;;;;;0.75;0.75;;;;;;;0.12;65.18;99859.91;5053743;28;20118;-83
2022/04/28 02:56:36;;;;;;;0.80;0.80;;;;;;;0.21;64.60;99868.78;5053915;28;20048;-83
2022/04/28 02:59:07;;;;;;;0.80;0.80;;;;;;;0.25;64.37;99859.47;5054036;28;20144;-83
2022/04/28 03:01:34;;;;;;;0.70;0.70;;;;;;;0.31;64.53;99868.66;5077475;28;20510;-84
2022/04/28 03:04:02;;;;;;;0.82;0.82;;;;;;;0.37;64.30;99868.03;5037910;28;20044;-84
2022/04/28 03:12:00;;;;;;;0.80;0.80;;;;;;;0.56;63.71;99877.59;5071841;28;20048;-84
2022/04/28 03:14:29;;;;;;;0.75;0.75;;;;;;;0.62;63.97;99872.47;5054309;28;20047;-82
2022/04/28 03:16:57;;;;;;;0.70;0.70;;;;;;;0.67;63.84;99879.13;5053992;28;20075;-83
2022/04/28 03:19:24;;;;;;;0.70;0.70;;;;;;;0.73;63.95;99889.94;5071771;28;20059;-82
2022/04/28 03:21:51;;;;;;;0.90;0.90;;;;;;;0.79;63.51;99884.00;5054299;28;20086;-83
2022/04/28 03:24:20;;;;;;;0.70;0.70;;;;;;;0.86;63.34;99898.31;5054761;28;20049;-82
2022/04/28 03:26:47;;;;;;;0.80;0.80;;;;;;;0.93;63.15;99895.00;5038004;28;20576;-83
2022/04/28 03:29:14;;;;;;;0.85;0.85;;;;;;;0.99;62.91;99897.06;5054337;28;20514;-81
2022/04/28 03:31:43;;;;;;;0.90;0.90;;;;;;;1.00;62.82;99904.84;5054326;28;20524;-82
2022/04/28 03:34:10;;;;;;;0.80;0.80;;;;;;;1.12;62.80;99900.06;5053807;28;20131;-82
2022/04/28 03:36:50;;;;;;;0.70;0.70;;;;;;;1.24;61.87;99898.78;5054057;28;20040;-83
2022/04/28 03:39:31;;;;;;;0.75;0.75;;;;;;;1.30;60.85;99903.44;5053324;28;20044;-84
2022/04/28 03:41:58;;;;;;;0.85;0.85;;;;;;;1.37;59.85;99911.63;5072474;28;20155;-84
2022/04/28 03:44:26;;;;;;;0.75;0.75;;;;;;;1.54;57.74;99907.13;5069365;28;20074;-84
2022/04/28 03:46:56;;;;;;;0.90;0.90;;;;;;;1.60;57.14;99905.66;5078058;28;20045;-82
2022/04/28 03:49:25;;;;;;;0.90;0.90;;;;;;;1.60;56.50;99916.31;5075545;28;20055;-82
2022/04/28 03:51:52;;;;;;;0.90;0.90;;;;;;;1.62;56.13;99919.63;5067087;28;20071;-83
2022/04/28 03:54:19;;;;;;;0.80;0.80;;;;;;;1.61;55.43;99909.97;5067171;28;20412;-82
2022/04/28 03:56:47;;;;;;;0.80;0.80;;;;;;;1.62;54.55;99932.91;5071545;28;20055;-84
2022/04/28 03:59:14;;;;;;;0.80;0.80;;;;;;;1.56;54.21;99929.09;5069937;28;20033;-83
2022/04/28 04:01:56;;;;;;;0.75;0.75;;;;;;;1.64;54.22;99936.25;5053231;28;20479;-82
2022/04/28 04:04:24;;;;;;;0.80;0.80;;;;;;;1.71;53.52;99942.59;5056057;28;20575;-85
2022/04/28 04:07:10;;;;;;;0.82;0.82;;;;;;;1.51;54.18;99947.38;5050426;28;20048;-83
2022/04/28 04:09:37;;;;;;;0.70;0.70;;;;;;;1.45;54.08;99953.34;5073149;28;20047;-82
2022/04/28 04:12:33;;;;;;;0.87;0.87;;;;;;;1.56;53.89;99961.03;5062671;28;20590;-82
2022/04/28 04:15:10;;;;;;;0.90;0.90;;;;;;;1.69;53.19;99956.06;5068180;28;20048;-82
2022/04/28 04:17:54;;;;;;;0.80;0.80;;;;;;;1.82;52.90;99954.75;5050149;28;20048;-82
2022/04/28 04:20:25;;;;;;;0.88;0.88;;;;;;;1.96;52.45;99962.09;5053537;28;20280;-85
2022/04/28 04:22:53;;;;;;;0.80;0.80;;;;;;;1.88;52.16;99964.75;5075135;28;20087;-83
2022/04/28 04:25:20;;;;;;;0.80;0.80;;;;;;;1.86;52.24;99961.41;5071125;28;20056;-83
2022/04/28 04:27:51;;;;;;;0.90;0.90;;;;;;;1.95;52.16;99965.75;5056721;28;20453;-85
2022/04/28 04:34:15;;;;;;;0.90;0.90;;;;;;;2.25;49.87;99971.41;4997514;28;20109;-84
2022/04/28 04:36:43;;;;;;;0.80;0.80;;;;;;;2.28;50.15;99979.06;4998235;28;20061;-84
2022/04/28 04:39:11;;;;;;;0.90;0.90;;;;;;;2.50;50.62;99978.38;4978676;28;20536;-83
2022/04/28 04:41:40;;;;;;;0.85;0.85;;;;;;;2.60;50.02;99984.34;4999213;28;20060;-84
2022/04/28 04:44:13;;;;;;;0.80;0.80;;;;;;;2.35;49.64;99988.03;5015524;28;20064;-85
2022/04/28 04:46:44;;;;;;;0.90;0.90;;;;;;;2.18;50.28;99984.56;5002421;28;20527;-83
2022/04/28 04:49:39;;;;;;;0.60;0.60;;;;;;;2.09;49.64;99989.03;4970533;28;20082;-85
2022/04/28 04:52:12;;;;;;;0.80;0.80;;;;;;;1.82;50.20;99987.50;5013084;28;20061;-84
2022/04/28 04:54:59;;;;;;;0.90;0.90;;;;;;;2.08;50.45;99997.22;4979456;28;20102;-85
2022/04/28 04:57:28;;;;;;;0.73;0.73;;;;;;;2.34;49.77;99997.06;4644651;28;10000883;-85
2022/04/28 04:59:58;;;;;;;0.82;0.82;;;;;;;2.55;49.30;100005.34;4975942;28;20518;-85
2022/04/28 05:02:29;;;;;;;0.80;0.80;;;;;;;2.72;49.09;100000.84;4985613;28;20049;-85
2022/04/28 05:05:21;;;;;;;0.80;0.80;;;;;;;2.88;48.95;100004.47;4994211;28;20054;-83
2022/04/28 05:08:07;;;;;;;0.80;0.80;;;;;;;2.96;48.25;99999.97;4983547;28;20181;-83
2022/04/28 05:10:42;;;;;;;0.77;0.77;;;;;;;3.10;48.12;100008.25;5007613;28;20045;-84
2022/04/28 05:13:11;;;;;;;0.80;0.80;;;;;;;3.13;46.85;100007.91;5029872;28;20104;-82
2022/04/28 05:15:56;;;;;;;0.85;0.85;;;;;;;2.92;46.56;100006.63;5036221;28;20125;-82
2022/04/28 05:18:38;;;;;;;0.85;0.85;;;;;;;2.85;46.39;100012.81;5011849;28;20050;-83
2022/04/28 05:21:38;;;;;;;0.82;0.82;;;;;;;2.75;45.52;100007.66;5010758;28;20045;-80
2022/04/28 05:24:08;;;;;;;0.90;0.90;;;;;;;2.66;45.84;100016.66;5031030;28;20527;-80
2022/04/28 05:26:35;;;;;;;0.90;0.90;;;;;;;2.58;45.45;99998.84;5052600;28;20270;-82
2022/04/28 05:29:25;;;;;;;0.80;0.80;;;;;;;2.58;45.40;100004.19;5066203;28;20139;-81
2022/04/28 05:32:06;;;;;;;0.82;0.82;;;;;;;2.76;46.16;100011.97;5039759;28;20125;-83
2022/04/28 05:34:52;;;;;;;0.90;0.90;;;;;;;2.97;45.91;100012.28;5024910;28;20142;-81
2022/04/28 05:37:21;;;;;;;0.80;0.80;;;;;;;3.37;46.06;100012.34;5051702;28;20064;-82
2022/04/28 05:39:48;;;;;;;0.80;0.80;;;;;;;3.54;44.76;100010.41;5035973;28;20075;-82
2022/04/28 05:42:15;;;;;;;0.88;0.88;;;;;;;3.50;44.01;100009.09;5053815;28;20139;-82
2022/04/28 05:47:30;;;;;;;0.80;0.80;;;;;;;3.67;43.64;100013.34;5072890;28;20119;-82
2022/04/28 05:49:57;;;;;;;0.80;0.80;;;;;;;3.74;43.33;100010.81;5068888;28;20047;-82
2022/04/28 05:52:25;;;;;;;0.70;0.70;;;;;;;3.24;44.29;100004.84;5072406;28;20106;-83
2022/04/28 05:54:53;;;;;;;0.80;0.80;;;;;;;3.09;44.77;100009.25;5061305;28;20043;-81
2022/04/28 05:57:21;;;;;;;0.80;0.80;;;;;;;3.30;44.97;100004.19;5065945;28;20110;-81
2022/04/28 05:59:48;;;;;;;0.80;0.80;;;;;;;3.62;43.78;100007.69;5062753;28;20040;-83
2022/04/28 06:02:35;;;;;;;0.80;0.80;;;;;;;3.81;42.74;100001.09;5080385;28;20323;-81
2022/04/28 06:05:07;;;;;;;0.80;0.80;;;;;;;4.03;42.89;99992.25;5065520;28;20051;-83
2022/04/28 06:07:34;;;;;;;0.80;0.80;;;;;;;3.98;41.63;99997.31;5033936;28;20149;-82
2022/04/28 06:10:03;;;;;;;0.80;0.80;;;;;;;3.91;42.12;100007.84;5071599;28;20083;-80
2022/04/28 06:12:31;;;;;;;0.90;0.90;;;;;;;4.19;41.73;100001.16;5069320;28;20044;-81
2022/04/28 06:15:07;;;;;;;0.82;0.82;;;;;;;4.47;41.23;100004.94;5077215;28;20048;-81
2022/04/28 06:17:58;;;;;;;0.80;0.80;;;;;;;4.24;41.20;100006.81;4994976;28;20182;-82
2022/04/28 06:20:25;;;;;;;0.80;0.80;;;;;;;4.30;40.67;100012.28;5006501;28;20112;-82
2022/04/28 06:23:02;;;;;;;0.80;0.80;;;;;;;4.53;37.73;100014.94;4967468;28;20672;-82
2022/04/28 06:25:36;;;;;;;0.80;0.80;;;;;;;4.72;35.34;100005.53;4976939;28;20060;-80
2022/04/28 06:28:04;;;;;;;0.70;0.70;;;;;;;4.32;34.74;100017.44;4981251;28;20108;-82
2022/04/28 06:30:36;;;;;;;0.80;0.80;;;;;;;4.23;33.28;100011.31;4991114;28;20060;-82
2022/04/28 06:33:26;;;;;;;0.80;0.80;;;;;;;4.28;32.92;100016.97;4971707;28;20042;-80
2022/04/28 06:36:00;;;;;;;0.80;0.80;;;;;;;4.46;32.87;100015.81;4957989;28;20062;-83
2022/04/28 06:38:36;;;;;;;0.75;0.75;;;;;;;4.37;34.56;100012.38;4983603;28;20085;-80
2022/04/28 06:41:06;;;;;;;0.80;0.80;;;;;;;4.69;34.52;100013.09;4991774;28;20065;-82
2022/04/28 06:43:37;;;;;;;0.70;0.70;;;;;;;4.81;34.60;100016.16;4974141;28;20096;-82
2022/04/28 06:46:28;;;;;;;0.80;0.80;;;;;;;4.78;34.27;100018.22;4986639;28;20074;-82
2022/04/28 06:49:04;;;;;;;0.80;0.80;;;;;;;5.11;33.28;100017.84;4973240;28;20505;-82
2022/04/28 06:51:54;;;;;;;0.70;0.70;;;;;;;5.05;33.19;100018.59;4932791;29;20071;-83
2022/04/28 06:54:40;;;;;;;0.90;0.90;;;;;;;4.85;33.85;100012.13;4949992;28;20059;-80
2022/04/28 06:57:09;;;;;;;0.80;0.80;;;;;;;5.14;33.53;100020.16;4985566;28;20869;-82
2022/04/28 06:59:38;;;;;;;0.80;0.80;;;;;;;5.41;32.74;100018.66;4983229;28;20220;-80
2022/04/28 07:02:10;;;;;;;0.80;0.80;;;;;;;5.31;32.67;100022.66;4983594;28;20058;-82
2022/04/28 07:04:41;;;;;;;0.75;0.75;;;;;;;5.47;32.84;100003.72;4987857;28;20081;-81
2022/04/28 07:07:13;;;;;;;0.80;0.80;;;;;;;5.55;33.24;100011.63;4988949;28;20629;-80
2022/04/28 07:09:43;;;;;;;0.70;0.70;;;;;;;5.51;32.75;99999.63;5003604;28;20124;-83
2022/04/28 07:12:30;;;;;;;0.80;0.80;;;;;;;5.67;32.70;100001.25;4988610;28;20073;-81
2022/04/28 07:14:58;;;;;;;0.82;0.82;;;;;;;5.65;32.90;100014.84;5005999;28;20398;-82
2022/04/28 07:17:31;;;;;;;0.80;0.80;;;;;;;5.64;32.22;100010.50;4998813;28;20505;-81
2022/04/28 07:20:01;;;;;;;0.80;0.80;;;;;;;5.57;32.61;100009.63;4969584;28;20049;-82
2022/04/28 07:22:29;;;;;;;0.77;0.77;;;;;;;5.65;31.93;100014.03;4986268;28;20162;-81
2022/04/28 07:24:56;;;;;;;0.88;0.88;;;;;;;5.78;32.17;100016.03;4985906;28;20054;-81
2022/04/28 07:27:24;;;;;;;0.80;0.80;;;;;;;5.89;31.79;100006.66;4985660;28;20906;-83
2022/04/28 07:29:58;;;;;;;0.80;0.80;;;;;;;5.82;31.56;100012.78;5043747;28;20418;-81
2022/04/28 07:32:37;;;;;;;0.90;0.90;;;;;;;6.16;31.80;100021.22;5052087;28;20582;-84
2022/04/28 07:35:18;;;;;;;0.80;0.80;;;;;;;6.54;31.73;100020.94;5071275;28;20059;-82
2022/04/28 07:38:06;;;;;;;0.90;0.90;;;;;;;6.87;31.22;100027.38;5052942;28;20106;-82
2022/04/28 07:40:36;;;;;;;0.90;0.90;;;;;;;6.95;31.55;100024.56;5083250;28;20082;-83
2022/04/28 07:43:10;;;;;;;0.90;0.90;;;;;;;6.83;30.51;100031.47;5049236;28;20075;-81
2022/04/28 07:45:41;;;;;;;0.90;0.90;;;;;;;7.09;30.41;100032.69;5053995;28;20585;-81
2022/04/28 07:48:17;;;;;;;0.90;0.90;;;;;;;7.41;30.05;100025.84;5065124;28;20539;-82
2022/04/28 07:50:47;;;;;;;0.90;0.90;;;;;;;7.79;30.12;100031.59;5063765;28;20071;-81
2022/04/28 07:53:24;;;;;;;0.90;0.90;;;;;;;8.28;28.91;100029.69;5064069;28;20088;-83
2022/04/28 07:58:37;;;;;;;0.80;0.80;;;;;;;7.71;29.77;100029.09;5065095;28;20068;-83
2022/04/28 08:01:24;;;;;;;0.70;0.70;;;;;;;8.07;28.19;100025.28;5074412;28;20052;-82
2022/04/28 08:03:53;;;;;;;0.90;0.90;;;;;;;8.25;28.15;100030.06;5075532;28;20144;-80
2022/04/28 08:06:21;;;;;;;0.70;0.70;;;;;;;8.50;27.86;100021.44;5081156;28;20437;-81
2022/04/28 08:08:48;;;;;;;0.70;0.70;;;;;;;8.14;27.87;100026.13;5058145;28;20059;-83
2022/04/28 08:11:16;;;;;;;0.70;0.70;;;;;;;7.53;27.84;100015.38;5066991;28;20048;-85
2022/04/28 08:13:43;;;;;;;0.70;0.70;;;;;;;7.35;29.63;100026.66;5057939;28;20498;-80
2022/04/28 08:16:41;;;;;;;1.00;1.00;;;;;;;7.37;29.87;100029.97;5058670;28;20048;-82
2022/04/28 08:19:09;;;;;;;1.00;1.00;;;;;;;8.14;27.52;100018.06;5056399;28;20036;-80
2022/04/28 08:21:46;;;;;;;0.90;0.90;;;;;;;8.20;27.40;100022.63;5050472;28;20474;-83
2022/04/28 08:24:16;;;;;;;0.70;0.70;;;;;;;8.44;27.43;100018.53;5057713;28;20054;-82
2022/04/28 08:26:45;;;;;;;0.70;0.70;;;;;;;8.99;27.09;100021.03;5069397;28;20064;-82
2022/04/28 08:29:12;;;;;;;1.05;1.05;;;;;;;8.76;26.07;100015.22;5063631;28;20056;-82
2022/04/28 08:31:44;;;;;;;1.00;1.00;;;;;;;9.32;27.15;100025.50;5071356;28;20503;-82
2022/04/28 08:34:21;;;;;;;1.00;1.00;;;;;;;9.22;26.12;100019.75;5074776;28;20051;-82
2022/04/28 08:36:51;;;;;;;0.70;0.70;;;;;;;9.32;25.88;100026.34;5075690;28;20058;-83
2022/04/28 08:39:20;;;;;;;0.70;0.70;;;;;;;8.82;26.73;100020.63;5079750;28;20074;-82
2022/04/28 08:41:48;;;;;;;1.00;1.00;;;;;;;9.24;25.70;100026.56;5076642;28;20109;-83
2022/04/28 08:44:18;;;;;;;0.90;0.90;;;;;;;9.57;25.60;100024.78;5097120;28;20052;-82
2022/04/28 08:46:53;;;;;;;1.10;1.10;;;;;;;10.81;24.63;100018.03;5078144;28;20059;-83
2022/04/28 08:49:31;;;;;;;0.90;0.90;;;;;;;11.53;24.73;100012.94;5070328;28;20142;-82
2022/04/28 08:52:36;;;;;;;0.88;0.88;;;;;;;11.87;23.37;100021.50;5035363;28;20045;-84
2022/04/28 08:55:14;;;;;;;0.80;0.80;;;;;;;11.47;24.15;100027.38;5010420;28;20065;-83
2022/04/28 08:57:42;;;;;;;0.90;0.90;;;;;;;11.86;23.29;100020.66;5015295;28;20049;-83
2022/04/28 09:00:11;;;;;;;0.60;0.60;;;;;;;11.49;23.74;100017.13;5018011;28;20057;-83
2022/04/28 09:03:01;;;;;;;0.80;0.80;;;;;;;10.88;24.82;100016.09;4969915;28;20054;-82
2022/04/28 09:06:24;;;;;;;0.90;0.90;;;;;;;10.89;25.15;100016.94;4969566;28;20429;-86
2022/04/28 09:09:16;;;;;;;1.00;1.00;;;;;;;11.09;24.61;100014.03;4973740;28;20057;-84
2022/04/28 09:12:03;;;;;;;1.00;1.00;;;;;;;11.79;23.65;100008.25;4969986;28;20137;-83
2022/04/28 09:14:55;;;;;;;0.95;0.95;;;;;;;12.44;23.91;99996.75;4937473;29;20083;-84
2022/04/28 09:17:40;;;;;;;0.60;0.60;;;;;;;12.02;24.06;100002.16;4926731;29;20070;-84
2022/04/28 09:20:23;;;;;;;1.00;1.00;;;;;;;12.72;24.07;100002.31;4921577;29;20065;-84
2022/04/28 09:23:04;;;;;;;0.95;0.95;;;;;;;13.42;22.82;99998.78;4924200;29;20040;-84
2022/04/28 09:25:52;;;;;;;1.10;1.10;;;;;;;13.93;22.00;100003.59;4912910;29;20063;-84
2022/04/28 09:28:19;;;;;;;1.00;1.00;;;;;;;14.61;21.62;100007.25;4958609;29;20119;-84
2022/04/28 09:30:51;;;;;;;0.60;0.60;;;;;;;14.67;21.89;100006.28;4941831;29;20059;-83
2022/04/28 09:33:39;;;;;;;0.60;0.60;;;;;;;12.71;23.25;100002.53;4957390;28;20055;-83
2022/04/28 09:36:29;;;;;;;0.60;0.60;;;;;;;11.36;24.24;100006.47;4942785;29;20051;-84
2022/04/28 09:39:03;;;;;;;0.60;0.60;;;;;;;10.93;24.59;100008.16;4944402;28;20061;-83
2022/04/28 09:44:28;;;;;;;0.68;0.68;;;;;;;9.72;24.96;100009.19;4976548;28;20069;-85
2022/04/28 09:47:05;;;;;;;0.70;0.70;;;;;;;9.72;25.76;100018.13;4971397;28;20058;-85
2022/04/28 09:49:32;;;;;;;0.68;0.68;;;;;;;9.73;25.53;100016.25;4963012;28;20073;-83
2022/04/28 09:52:32;;;;;;;1.02;1.02;;;;;;;10.82;24.33;100015.13;5035092;28;20049;-85
2022/04/28 09:55:24;;;;;;;0.70;0.70;;;;;;;11.03;23.60;100015.75;5077474;28;20055;-85
2022/04/28 09:58:18;;;;;;;0.82;0.82;;;;;;;10.02;24.79;100014.00;5025198;28;20045;-84
2022/04/28 10:00:46;;;;;;;0.70;0.70;;;;;;;9.80;24.96;100018.88;5022551;28;20527;-84
2022/04/28 10:03:14;;;;;;;0.70;0.70;;;;;;;10.58;24.86;100010.53;5018609;28;20054;-84
2022/04/28 10:05:43;;;;;;;0.70;0.70;;;;;;;9.85;25.16;100013.69;5018066;28;20072;-84
2022/04/28 10:08:34;;;;;;;0.70;0.70;;;;;;;9.92;25.01;100020.69;5005073;28;20133;-84
2022/04/28 10:11:05;;;;;;;0.85;0.85;;;;;;;10.35;24.92;100014.66;5020082;28;20428;-84
2022/04/28 10:13:33;;;;;;;0.60;0.60;;;;;;;10.23;24.64;100016.41;5019245;28;20049;-84
2022/04/28 10:16:05;;;;;;;1.40;1.30;;;;;;;11.43;23.27;100018.06;5033137;28;20144;-84
2022/04/28 10:18:37;;;;;;;1.10;1.10;;;;;;;13.81;21.81;100011.75;5010459;28;20053;-83
2022/04/28 10:21:05;;;;;;;1.10;1.10;;;;;;;14.88;20.49;100001.97;5018716;28;20053;-85
2022/04/28 10:32:58;;;;;;;1.10;1.10;;;;;;;13.43;20.70;100010.44;5052759;28;20041;-83
2022/04/28 10:35:36;;;;;;;1.10;1.10;;;;;;;13.41;20.84;100010.66;5063330;28;20088;-84
2022/04/28 10:38:11;;;;;;;0.90;0.90;;;;;;;11.95;22.28;100007.66;5076837;28;20052;-83
2022/04/28 10:40:56;;;;;;;0.73;0.73;;;;;;;11.37;22.73;100018.94;5095323;28;20131;-84
2022/04/28 10:43:24;;;;;;;1.00;1.00;;;;;;;12.04;22.45;100019.81;5086262;28;20048;-86
2022/04/28 10:45:54;;;;;;;0.80;0.80;;;;;;;13.32;21.35;100012.13;5082982;28;20173;-84
2022/04/28 10:48:30;;;;;;;0.82;0.82;;;;;;;12.71;21.72;100005.25;5083829;28;20055;-85
2022/04/28 10:51:16;;;;;;;0.80;0.80;;;;;;;12.79;21.71;100018.47;5079336;28;20060;-85
2022/04/28 10:54:14;;;;;;;1.00;1.00;;;;;;;12.18;22.83;100006.06;5051384;28;20052;-84
2022/04/28 10:56:41;;;;;;;0.77;0.77;;;;;;;13.27;22.96;100003.88;5059653;28;20040;-85
2022/04/28 10:59:39;;;;;;;0.50;0.50;;;;;;;12.67;22.77;99999.50;5085244;28;20526;-86
2022/04/28 11:02:11;;;;;;;1.30;1.20;;;;;;;12.57;23.14;100007.34;5065472;28;20098;-84
2022/04/28 11:04:40;;;;;;;0.50;0.50;;;;;;;12.58;23.22;100000.88;5075863;28;20182;-85
2022/04/28 11:07:10;;;;;;;0.50;0.50;;;;;;;11.73;23.35;100003.78;5074798;28;20067;-85
2022/04/28 11:09:39;;;;;;;0.50;0.50;;;;;;;11.31;24.55;99998.22;5085288;28;20052;-85
2022/04/28 11:12:11;;;;;;;1.17;1.17;;;;;;;11.61;24.22;99987.47;5087496;28;20170;-84
2022/04/28 11:14:48;;;;;;;1.10;1.10;;;;;;;13.74;22.06;99983.94;5059905;28;20080;-85
2022/04/28 11:17:17;;;;;;;1.10;1.10;;;;;;;15.97;20.32;99976.75;5075513;28;20052;-85
2022/04/28 11:19:44;;;;;;;0.50;0.50;;;;;;;15.72;20.53;99979.19;5079782;28;20044;-86
2022/04/28 11:22:11;;;;;;;0.40;0.40;;;;;;;14.56;21.28;99971.84;5085933;28;20044;-86
2022/04/28 11:24:46;;;;;;;0.50;0.50;;;;;;;12.91;21.92;99980.53;5075449;28;20049;-85
2022/04/28 11:27:37;;;;;;;0.50;0.50;;;;;;;10.93;23.10;99980.34;5019726;28;20611;-84
2022/04/28 11:30:14;;;;;;;0.60;0.60;;;;;;;9.85;24.17;99981.31;5069604;28;20586;-86
2022/04/28 11:32:46;;;;;;;0.52;0.52;;;;;;;9.38;24.86;99978.84;5075713;28;20056;-83
2022/04/28 11:35:13;;;;;;;0.60;0.60;;;;;;;9.74;24.67;99974.75;5089813;28;20048;-84
2022/04/28 11:37:40;;;;;;;0.60;0.60;;;;;;;10.27;25.25;99969.03;5095167;28;20044;-85
2022/04/28 11:40:12;;;;;;;0.60;0.60;;;;;;;10.54;25.21;99971.56;5098691;28;20070;-84
2022/04/28 11:42:56;;;;;;;0.60;0.60;;;;;;;10.56;25.21;99972.19;5099100;28;20056;-85
2022/04/28 11:45:24;;;;;;;0.60;0.60;;;;;;;10.52;24.91;99971.78;5054629;28;20041;-85
2022/04/28 11:47:53;;;;;;;0.60;0.60;;;;;;;10.32;24.53;99965.72;5054469;28;20135;-85
2022/04/28 11:50:35;;;;;;;0.60;0.60;;;;;;;10.58;24.46;99964.66;5052205;28;20116;-85
2022/04/28 11:53:09;;;;;;;0.60;0.60;;;;;;;10.66;24.62;99964.41;5055210;28;20414;-85
2022/04/28 11:55:38;;;;;;;0.70;0.70;;;;;;;10.74;24.46;99964.13;5053152;28;20078;-85
2022/04/28 11:58:08;;;;;;;0.60;0.60;;;;;;;10.70;25.06;99965.59;5052081;28;20049;-84
2022/04/28 12:00:42;;;;;;;1.25;1.20;;;;;;;11.56;24.52;99961.13;5050111;28;20135;-86
2022/04/28 12:03:22;;;;;;;1.30;1.20;;;;;;;14.04;21.90;99953.84;5056689;28;20057;-85
2022/04/28 12:05:53;;;;;;;1.20;1.20;;;;;;;15.88;20.04;99945.63;5047196;28;20136;-85
2022/04/28 12:08:21;;;;;;;1.10;1.10;;;;;;;17.56;19.21;99947.91;5039373;28;20053;-86
2022/04/28 12:19:19;;;;;;;1.00;1.00;;;;;;;18.36;16.83;99937.44;5043342;28;20046;-86
2022/04/28 12:19:28;;;;;;;;;;;;;;;18.54;17.99;99936.06;4684946;28;10001375;-86
2022/04/28 12:22:02;;;;;;;1.00;1.00;;;;;;;18.62;16.88;99938.22;5058120;28;19932;-87
2022/04/28 12:24:33;;;;;;;0.90;0.90;;;;;;;17.96;16.97;99936.28;5086011;28;20259;-85
2022/04/28 12:27:11;;;;;;;0.40;0.40;;;;;;;16.20;18.44;99932.06;5073031;28;20044;-85
2022/04/28 12:29:55;;;;;;;0.43;0.43;;;;;;;13.93;20.46;99936.56;5091558;28;20048;-86
2022/04/28 12:32:23;;;;;;;0.40;0.40;;;;;;;13.17;21.18;99925.03;5096381;28;20044;-88
2022/04/28 12:35:03;;;;;;;0.50;0.50;;;;;;;12.11;22.23;99928.53;5068012;28;20080;-88
2022/04/28 12:37:30;;;;;;;0.60;0.60;;;;;;;11.98;22.54;99925.22;5061759;28;20048;-88
2022/04/28 12:40:02;;;;;;;0.70;0.70;;;;;;;12.14;22.46;99925.38;5051793;28;20140;-86
2022/04/28 12:42:44;;;;;;;1.10;1.10;;;;;;;15.47;20.19;99920.69;5050255;28;20080;-85
2022/04/28 12:45:12;;;;;;;1.10;1.10;;;;;;;16.90;18.31;99916.50;5042323;28;20626;-84
2022/04/28 12:47:40;;;;;;;1.00;1.00;;;;;;;18.00;17.80;99909.25;5028232;28;20063;-86
2022/04/28 12:50:24;;;;;;;0.93;0.93;;;;;;;19.45;16.78;99914.22;5041496;28;20045;-85